sensor_id;sensor_type;location;lat;lon;timestamp;temperature;humidity
22908;DHT22;11620;50.050;8.690;2022-08-07T00:02:24;20.40;95.40
22908;DHT22;11620;50.050;8.690;2022-08-07T00:05:10;20.40;95.90
22908;DHT22;11620;50.050;8.690;2022-08-07T00:07:57;20.40;95.80
22908;DHT22;11620;50.050;8.690;2022-08-07T00:10:43;20.20;95.40
22908;DHT22;11620;50.050;8.690;2022-08-07T00:13:30;20.20;95.60
22908;DHT22;11620;50.050;8.690;2022-08-07T00:16:17;20.10;95.50
22908;DHT22;11620;50.050;8.690;2022-08-07T00:19:03;20.10;95.70
22908;DHT22;11620;50.050;8.690;2022-08-07T00:21:50;20.00;95.40
22908;DHT22;11620;50.050;8.690;2022-08-07T00:24:36;20.00;95.80
22908;DHT22;11620;50.050;8.690;2022-08-07T00:27:22;20.00;95.90
22908;DHT22;11620;50.050;8.690;2022-08-07T00:30:09;20.10;96.00
22908;DHT22;11620;50.050;8.690;2022-08-07T00:32:57;20.10;96.20
22908;DHT22;11620;50.050;8.690;2022-08-07T00:35:43;20.10;95.60
22908;DHT22;11620;50.050;8.690;2022-08-07T00:38:29;20.00;95.90
22908;DHT22;11620;50.050;8.690;2022-08-07T00:41:24;20.00;96.10
22908;DHT22;11620;50.050;8.690;2022-08-07T00:44:11;20.00;96.00
22908;DHT22;11620;50.050;8.690;2022-08-07T00:46:57;20.00;96.30
22908;DHT22;11620;50.050;8.690;2022-08-07T00:49:43;20.00;96.10
22908;DHT22;11620;50.050;8.690;2022-08-07T00:52:30;19.90;96.30
22908;DHT22;11620;50.050;8.690;2022-08-07T00:55:16;19.90;96.50
22908;DHT22;11620;50.050;8.690;2022-08-07T00:58:03;19.90;96.50
22908;DHT22;11620;50.050;8.690;2022-08-07T01:00:49;19.80;96.20
22908;DHT22;11620;50.050;8.690;2022-08-07T01:03:36;19.80;96.50
22908;DHT22;11620;50.050;8.690;2022-08-07T01:06:23;19.80;96.10
22908;DHT22;11620;50.050;8.690;2022-08-07T01:09:09;19.80;96.30
22908;DHT22;11620;50.050;8.690;2022-08-07T01:11:55;19.70;96.30
22908;DHT22;11620;50.050;8.690;2022-08-07T01:14:42;19.70;96.70
22908;DHT22;11620;50.050;8.690;2022-08-07T01:17:30;19.70;96.40
22908;DHT22;11620;50.050;8.690;2022-08-07T01:20:21;19.70;96.90
22908;DHT22;11620;50.050;8.690;2022-08-07T01:23:12;19.60;96.60
22908;DHT22;11620;50.050;8.690;2022-08-07T01:25:59;19.50;96.40
22908;DHT22;11620;50.050;8.690;2022-08-07T01:28:47;19.50;96.90
22908;DHT22;11620;50.050;8.690;2022-08-07T01:31:34;19.40;96.80
22908;DHT22;11620;50.050;8.690;2022-08-07T01:34:20;19.40;96.80
22908;DHT22;11620;50.050;8.690;2022-08-07T01:37:06;19.40;96.90
22908;DHT22;11620;50.050;8.690;2022-08-07T01:39:53;19.40;96.70
22908;DHT22;11620;50.050;8.690;2022-08-07T01:42:40;19.40;96.70
22908;DHT22;11620;50.050;8.690;2022-08-07T01:45:26;19.30;97.20
22908;DHT22;11620;50.050;8.690;2022-08-07T01:48:12;19.30;96.70
22908;DHT22;11620;50.050;8.690;2022-08-07T01:51:02;19.30;97.10
22908;DHT22;11620;50.050;8.690;2022-08-07T01:53:51;19.20;97.40
22908;DHT22;11620;50.050;8.690;2022-08-07T01:56:51;19.20;97.20
22908;DHT22;11620;50.050;8.690;2022-08-07T01:59:51;19.20;96.90
22908;DHT22;11620;50.050;8.690;2022-08-07T02:02:55;19.20;97.00
22908;DHT22;11620;50.050;8.690;2022-08-07T02:05:53;19.20;97.40
22908;DHT22;11620;50.050;8.690;2022-08-07T02:08:41;19.10;97.20
22908;DHT22;11620;50.050;8.690;2022-08-07T02:11:32;19.20;97.40
22908;DHT22;11620;50.050;8.690;2022-08-07T02:14:19;19.10;97.70
22908;DHT22;11620;50.050;8.690;2022-08-07T02:17:08;19.10;97.20
22908;DHT22;11620;50.050;8.690;2022-08-07T02:19:56;19.00;97.30
22908;DHT22;11620;50.050;8.690;2022-08-07T02:22:45;19.00;97.60
22908;DHT22;11620;50.050;8.690;2022-08-07T02:25:34;19.00;97.70
22908;DHT22;11620;50.050;8.690;2022-08-07T02:28:22;19.00;97.70
22908;DHT22;11620;50.050;8.690;2022-08-07T02:31:11;19.00;97.90
22908;DHT22;11620;50.050;8.690;2022-08-07T02:34:03;19.00;98.00
22908;DHT22;11620;50.050;8.690;2022-08-07T02:36:50;18.90;97.20
22908;DHT22;11620;50.050;8.690;2022-08-07T02:39:39;18.90;97.80
22908;DHT22;11620;50.050;8.690;2022-08-07T02:42:29;18.90;98.20
22908;DHT22;11620;50.050;8.690;2022-08-07T02:45:16;18.80;98.40
22908;DHT22;11620;50.050;8.690;2022-08-07T02:48:04;18.80;98.10
22908;DHT22;11620;50.050;8.690;2022-08-07T02:50:52;18.70;98.10
22908;DHT22;11620;50.050;8.690;2022-08-07T02:53:41;18.70;98.00
22908;DHT22;11620;50.050;8.690;2022-08-07T02:56:30;18.80;98.50
22908;DHT22;11620;50.050;8.690;2022-08-07T02:59:18;18.70;98.20
22908;DHT22;11620;50.050;8.690;2022-08-07T03:02:06;18.70;98.50
22908;DHT22;11620;50.050;8.690;2022-08-07T03:04:54;18.70;98.60
22908;DHT22;11620;50.050;8.690;2022-08-07T03:07:41;18.60;98.10
22908;DHT22;11620;50.050;8.690;2022-08-07T03:10:28;18.60;98.70
22908;DHT22;11620;50.050;8.690;2022-08-07T03:13:16;18.50;98.40
22908;DHT22;11620;50.050;8.690;2022-08-07T03:16:03;18.50;98.70
22908;DHT22;11620;50.050;8.690;2022-08-07T03:18:50;18.50;99.10
22908;DHT22;11620;50.050;8.690;2022-08-07T03:21:37;18.50;98.80
22908;DHT22;11620;50.050;8.690;2022-08-07T03:24:23;18.50;98.10
22908;DHT22;11620;50.050;8.690;2022-08-07T03:27:10;18.40;98.80
22908;DHT22;11620;50.050;8.690;2022-08-07T03:29:57;18.40;98.80
22908;DHT22;11620;50.050;8.690;2022-08-07T03:32:46;18.40;99.20
22908;DHT22;11620;50.050;8.690;2022-08-07T03:35:35;18.40;99.30
22908;DHT22;11620;50.050;8.690;2022-08-07T03:38:21;18.40;99.50
22908;DHT22;11620;50.050;8.690;2022-08-07T03:41:09;18.30;98.60
22908;DHT22;11620;50.050;8.690;2022-08-07T03:43:56;18.30;99.00
22908;DHT22;11620;50.050;8.690;2022-08-07T03:46:43;18.30;98.80
22908;DHT22;11620;50.050;8.690;2022-08-07T03:49:29;18.30;99.10
22908;DHT22;11620;50.050;8.690;2022-08-07T03:52:17;18.20;98.90
22908;DHT22;11620;50.050;8.690;2022-08-07T03:55:05;18.20;99.30
22908;DHT22;11620;50.050;8.690;2022-08-07T03:57:52;18.20;99.50
22908;DHT22;11620;50.050;8.690;2022-08-07T04:00:40;18.10;99.20
22908;DHT22;11620;50.050;8.690;2022-08-07T04:03:28;18.10;99.70
22908;DHT22;11620;50.050;8.690;2022-08-07T04:06:14;18.10;99.40
22908;DHT22;11620;50.050;8.690;2022-08-07T04:09:01;18.00;99.70
22908;DHT22;11620;50.050;8.690;2022-08-07T04:11:49;18.00;99.50
22908;DHT22;11620;50.050;8.690;2022-08-07T04:14:36;18.00;99.60
22908;DHT22;11620;50.050;8.690;2022-08-07T04:17:22;18.00;99.60
22908;DHT22;11620;50.050;8.690;2022-08-07T04:20:10;18.00;99.60
22908;DHT22;11620;50.050;8.690;2022-08-07T04:22:58;17.90;99.80
22908;DHT22;11620;50.050;8.690;2022-08-07T04:25:44;18.00;99.80
22908;DHT22;11620;50.050;8.690;2022-08-07T04:28:32;18.00;99.80
22908;DHT22;11620;50.050;8.690;2022-08-07T04:31:18;17.90;99.80
22908;DHT22;11620;50.050;8.690;2022-08-07T04:34:08;18.00;99.90
22908;DHT22;11620;50.050;8.690;2022-08-07T04:36:55;18.00;99.90
22908;DHT22;11620;50.050;8.690;2022-08-07T04:39:41;18.00;99.80
22908;DHT22;11620;50.050;8.690;2022-08-07T04:42:27;18.00;99.90
22908;DHT22;11620;50.050;8.690;2022-08-07T04:45:17;17.90;99.90
22908;DHT22;11620;50.050;8.690;2022-08-07T04:48:07;17.90;99.90
22908;DHT22;11620;50.050;8.690;2022-08-07T04:54:38;17.90;99.90
22908;DHT22;11620;50.050;8.690;2022-08-07T04:57:16;17.90;99.90
22908;DHT22;11620;50.050;8.690;2022-08-07T05:00:16;17.90;99.90
22908;DHT22;11620;50.050;8.690;2022-08-07T05:03:17;17.90;99.90
22908;DHT22;11620;50.050;8.690;2022-08-07T05:06:12;18.00;99.90
22908;DHT22;11620;50.050;8.690;2022-08-07T05:09:08;18.00;99.90
22908;DHT22;11620;50.050;8.690;2022-08-07T05:11:57;18.00;99.90
22908;DHT22;11620;50.050;8.690;2022-08-07T05:14:47;17.90;99.90
22908;DHT22;11620;50.050;8.690;2022-08-07T05:17:36;17.90;99.90
22908;DHT22;11620;50.050;8.690;2022-08-07T05:20:26;17.90;99.90
22908;DHT22;11620;50.050;8.690;2022-08-07T05:23:19;18.00;99.90
22908;DHT22;11620;50.050;8.690;2022-08-07T05:26:09;18.10;99.90
22908;DHT22;11620;50.050;8.690;2022-08-07T05:28:59;18.00;99.90
22908;DHT22;11620;50.050;8.690;2022-08-07T05:31:47;18.00;99.90
22908;DHT22;11620;50.050;8.690;2022-08-07T05:34:39;18.00;99.90
22908;DHT22;11620;50.050;8.690;2022-08-07T05:37:25;18.10;99.90
22908;DHT22;11620;50.050;8.690;2022-08-07T05:40:12;18.00;99.90
22908;DHT22;11620;50.050;8.690;2022-08-07T05:42:59;18.00;99.90
22908;DHT22;11620;50.050;8.690;2022-08-07T05:45:47;18.00;99.90
22908;DHT22;11620;50.050;8.690;2022-08-07T05:48:34;18.10;99.90
22908;DHT22;11620;50.050;8.690;2022-08-07T05:51:21;18.10;99.90
22908;DHT22;11620;50.050;8.690;2022-08-07T05:54:12;18.10;99.90
22908;DHT22;11620;50.050;8.690;2022-08-07T05:57:00;18.20;99.90
22908;DHT22;11620;50.050;8.690;2022-08-07T05:59:48;18.20;99.90
22908;DHT22;11620;50.050;8.690;2022-08-07T06:02:35;18.20;99.90
22908;DHT22;11620;50.050;8.690;2022-08-07T06:05:22;18.30;99.90
22908;DHT22;11620;50.050;8.690;2022-08-07T06:08:12;18.30;99.90
22908;DHT22;11620;50.050;8.690;2022-08-07T06:10:59;18.40;99.90
22908;DHT22;11620;50.050;8.690;2022-08-07T06:13:46;18.50;99.90
22908;DHT22;11620;50.050;8.690;2022-08-07T06:16:33;18.50;99.90
22908;DHT22;11620;50.050;8.690;2022-08-07T06:19:20;18.60;99.90
22908;DHT22;11620;50.050;8.690;2022-08-07T06:22:07;18.80;99.90
22908;DHT22;11620;50.050;8.690;2022-08-07T06:24:57;19.10;99.90
22908;DHT22;11620;50.050;8.690;2022-08-07T06:27:44;19.30;99.90
22908;DHT22;11620;50.050;8.690;2022-08-07T06:30:30;19.60;99.90
22908;DHT22;11620;50.050;8.690;2022-08-07T06:33:17;19.90;99.90
22908;DHT22;11620;50.050;8.690;2022-08-07T06:36:04;20.20;99.90
22908;DHT22;11620;50.050;8.690;2022-08-07T06:38:51;20.50;99.60
22908;DHT22;11620;50.050;8.690;2022-08-07T06:41:41;20.80;99.00
22908;DHT22;11620;50.050;8.690;2022-08-07T06:44:28;21.10;98.30
22908;DHT22;11620;50.050;8.690;2022-08-07T06:47:15;21.30;97.90
22908;DHT22;11620;50.050;8.690;2022-08-07T06:50:02;21.40;97.50
22908;DHT22;11620;50.050;8.690;2022-08-07T06:52:53;21.60;97.70
22908;DHT22;11620;50.050;8.690;2022-08-07T06:55:40;21.80;97.50
22908;DHT22;11620;50.050;8.690;2022-08-07T06:58:27;22.10;97.70
22908;DHT22;11620;50.050;8.690;2022-08-07T07:01:14;22.20;96.80
22908;DHT22;11620;50.050;8.690;2022-08-07T07:04:04;22.40;96.40
22908;DHT22;11620;50.050;8.690;2022-08-07T07:06:51;22.50;97.20
22908;DHT22;11620;50.050;8.690;2022-08-07T07:09:44;22.60;96.80
22908;DHT22;11620;50.050;8.690;2022-08-07T07:15:26;22.80;96.60
22908;DHT22;11620;50.050;8.690;2022-08-07T07:18:27;22.90;96.70
22908;DHT22;11620;50.050;8.690;2022-08-07T07:21:21;23.00;95.70
22908;DHT22;11620;50.050;8.690;2022-08-07T07:24:08;23.30;96.80
22908;DHT22;11620;50.050;8.690;2022-08-07T07:26:57;23.50;96.50
22908;DHT22;11620;50.050;8.690;2022-08-07T07:29:50;23.60;95.60
22908;DHT22;11620;50.050;8.690;2022-08-07T07:32:38;23.80;95.70
22908;DHT22;11620;50.050;8.690;2022-08-07T07:35:25;24.00;96.00
22908;DHT22;11620;50.050;8.690;2022-08-07T07:38:13;24.30;96.40
22908;DHT22;11620;50.050;8.690;2022-08-07T07:41:03;24.40;95.60
22908;DHT22;11620;50.050;8.690;2022-08-07T07:43:51;24.60;95.90
22908;DHT22;11620;50.050;8.690;2022-08-07T07:46:39;24.70;95.90
22908;DHT22;11620;50.050;8.690;2022-08-07T07:49:28;25.00;95.80
22908;DHT22;11620;50.050;8.690;2022-08-07T07:52:16;25.20;96.40
22908;DHT22;11620;50.050;8.690;2022-08-07T07:55:05;25.60;95.70
22908;DHT22;11620;50.050;8.690;2022-08-07T07:57:53;25.70;94.90
22908;DHT22;11620;50.050;8.690;2022-08-07T08:00:44;25.70;94.30
22908;DHT22;11620;50.050;8.690;2022-08-07T08:03:33;25.80;94.90
22908;DHT22;11620;50.050;8.690;2022-08-07T08:06:22;26.00;95.00
22908;DHT22;11620;50.050;8.690;2022-08-07T08:09:11;26.20;94.10
22908;DHT22;11620;50.050;8.690;2022-08-07T08:11:58;26.30;93.30
22908;DHT22;11620;50.050;8.690;2022-08-07T08:14:52;26.60;93.70
22908;DHT22;11620;50.050;8.690;2022-08-07T08:17:40;26.70;93.50
22908;DHT22;11620;50.050;8.690;2022-08-07T08:20:30;26.70;93.70
22908;DHT22;11620;50.050;8.690;2022-08-07T08:23:19;26.80;93.60
22908;DHT22;11620;50.050;8.690;2022-08-07T08:26:25;27.00;93.80
22908;DHT22;11620;50.050;8.690;2022-08-07T08:29:32;27.10;93.10
22908;DHT22;11620;50.050;8.690;2022-08-07T08:32:24;27.30;93.50
22908;DHT22;11620;50.050;8.690;2022-08-07T08:35:14;27.60;93.60
22908;DHT22;11620;50.050;8.690;2022-08-07T08:38:04;27.90;93.20
22908;DHT22;11620;50.050;8.690;2022-08-07T08:48:17;28.20;91.60
22908;DHT22;11620;50.050;8.690;2022-08-07T08:54:19;28.60;92.70
22908;DHT22;11620;50.050;8.690;2022-08-07T08:57:15;28.70;91.90
22908;DHT22;11620;50.050;8.690;2022-08-07T09:00:08;28.90;92.10
22908;DHT22;11620;50.050;8.690;2022-08-07T09:02:59;28.90;92.50
22908;DHT22;11620;50.050;8.690;2022-08-07T09:07:07;29.10;92.40
22908;DHT22;11620;50.050;8.690;2022-08-07T09:12:46;29.40;91.90
22908;DHT22;11620;50.050;8.690;2022-08-07T09:27:40;30.20;92.30
22908;DHT22;11620;50.050;8.690;2022-08-07T09:36:47;30.60;92.30
22908;DHT22;11620;50.050;8.690;2022-08-07T09:40:04;30.60;92.70
22908;DHT22;11620;50.050;8.690;2022-08-07T09:47:29;31.00;91.60
22908;DHT22;11620;50.050;8.690;2022-08-07T09:53:17;31.40;91.30
22908;DHT22;11620;50.050;8.690;2022-08-07T10:26:50;32.30;87.70
22908;DHT22;11620;50.050;8.690;2022-08-07T10:30:03;32.10;83.40
22908;DHT22;11620;50.050;8.690;2022-08-07T10:36:50;31.40;87.90
22908;DHT22;11620;50.050;8.690;2022-08-07T10:39:57;31.60;87.90
22908;DHT22;11620;50.050;8.690;2022-08-07T10:42:59;31.50;87.10
22908;DHT22;11620;50.050;8.690;2022-08-07T10:45:57;31.90;88.30
22908;DHT22;11620;50.050;8.690;2022-08-07T10:49:07;32.20;86.30
22908;DHT22;11620;50.050;8.690;2022-08-07T10:52:14;32.00;84.90
22908;DHT22;11620;50.050;8.690;2022-08-07T10:55:23;32.10;86.60
22908;DHT22;11620;50.050;8.690;2022-08-07T11:05:27;32.80;83.60
22908;DHT22;11620;50.050;8.690;2022-08-07T11:08:39;32.90;84.40
22908;DHT22;11620;50.050;8.690;2022-08-07T11:11:58;32.90;83.40
22908;DHT22;11620;50.050;8.690;2022-08-07T11:14:54;33.00;82.50
22908;DHT22;11620;50.050;8.690;2022-08-07T11:20:54;33.10;82.30
22908;DHT22;11620;50.050;8.690;2022-08-07T11:23:53;33.40;84.40
22908;DHT22;11620;50.050;8.690;2022-08-07T11:27:01;33.40;83.90
22908;DHT22;11620;50.050;8.690;2022-08-07T11:30:03;33.40;83.00
22908;DHT22;11620;50.050;8.690;2022-08-07T11:32:55;33.60;80.50
22908;DHT22;11620;50.050;8.690;2022-08-07T11:39:24;33.60;81.50
22908;DHT22;11620;50.050;8.690;2022-08-07T11:42:16;33.80;81.10
22908;DHT22;11620;50.050;8.690;2022-08-07T11:48:23;34.30;80.70
22908;DHT22;11620;50.050;8.690;2022-08-07T11:57:45;33.80;80.50
22908;DHT22;11620;50.050;8.690;2022-08-07T12:00:39;33.50;82.10
22908;DHT22;11620;50.050;8.690;2022-08-07T12:06:44;33.50;80.40
22908;DHT22;11620;50.050;8.690;2022-08-07T12:09:40;33.60;81.90
22908;DHT22;11620;50.050;8.690;2022-08-07T12:12:35;33.70;78.90
22908;DHT22;11620;50.050;8.690;2022-08-07T12:15:25;33.70;79.30
22908;DHT22;11620;50.050;8.690;2022-08-07T12:18:29;33.70;81.10
22908;DHT22;11620;50.050;8.690;2022-08-07T12:21:43;33.60;80.30
22908;DHT22;11620;50.050;8.690;2022-08-07T12:27:26;33.80;79.40
22908;DHT22;11620;50.050;8.690;2022-08-07T12:30:15;34.00;79.70
22908;DHT22;11620;50.050;8.690;2022-08-07T12:33:14;34.00;79.00
22908;DHT22;11620;50.050;8.690;2022-08-07T12:36:05;34.00;79.20
22908;DHT22;11620;50.050;8.690;2022-08-07T12:38:53;34.10;79.00
22908;DHT22;11620;50.050;8.690;2022-08-07T12:41:42;34.20;79.20
22908;DHT22;11620;50.050;8.690;2022-08-07T12:44:29;34.30;77.70
22908;DHT22;11620;50.050;8.690;2022-08-07T12:53:42;33.90;76.70
22908;DHT22;11620;50.050;8.690;2022-08-07T12:56:33;34.20;78.90
22908;DHT22;11620;50.050;8.690;2022-08-07T12:59:29;34.40;78.10
22908;DHT22;11620;50.050;8.690;2022-08-07T13:08:54;34.40;76.40
22908;DHT22;11620;50.050;8.690;2022-08-07T13:18:12;34.40;75.20
22908;DHT22;11620;50.050;8.690;2022-08-07T13:24:37;34.50;76.60
22908;DHT22;11620;50.050;8.690;2022-08-07T13:27:32;34.70;75.80
22908;DHT22;11620;50.050;8.690;2022-08-07T13:30:21;34.70;76.20
22908;DHT22;11620;50.050;8.690;2022-08-07T13:33:23;34.50;75.00
22908;DHT22;11620;50.050;8.690;2022-08-07T13:36:24;34.60;75.90
22908;DHT22;11620;50.050;8.690;2022-08-07T13:42:01;33.90;72.20
22908;DHT22;11620;50.050;8.690;2022-08-07T13:44:48;34.00;73.90
22908;DHT22;11620;50.050;8.690;2022-08-07T13:47:38;34.00;74.60
22908;DHT22;11620;50.050;8.690;2022-08-07T13:50:26;34.20;74.40
22908;DHT22;11620;50.050;8.690;2022-08-07T13:53:20;34.20;75.20
22908;DHT22;11620;50.050;8.690;2022-08-07T13:56:08;34.20;74.20
22908;DHT22;11620;50.050;8.690;2022-08-07T13:58:55;34.20;74.90
22908;DHT22;11620;50.050;8.690;2022-08-07T14:01:54;34.40;74.70
22908;DHT22;11620;50.050;8.690;2022-08-07T14:04:47;34.40;74.10
22908;DHT22;11620;50.050;8.690;2022-08-07T14:07:42;34.50;73.60
22908;DHT22;11620;50.050;8.690;2022-08-07T14:10:34;34.30;73.90
22908;DHT22;11620;50.050;8.690;2022-08-07T14:13:27;34.20;73.40
22908;DHT22;11620;50.050;8.690;2022-08-07T14:16:15;33.90;73.40
22908;DHT22;11620;50.050;8.690;2022-08-07T14:19:04;33.90;71.90
22908;DHT22;11620;50.050;8.690;2022-08-07T14:21:57;33.80;73.30
22908;DHT22;11620;50.050;8.690;2022-08-07T14:24:47;33.80;75.40
22908;DHT22;11620;50.050;8.690;2022-08-07T14:27:38;33.90;75.20
22908;DHT22;11620;50.050;8.690;2022-08-07T14:30:26;33.80;74.70
22908;DHT22;11620;50.050;8.690;2022-08-07T14:33:15;33.80;75.60
22908;DHT22;11620;50.050;8.690;2022-08-07T14:36:02;33.70;75.40
22908;DHT22;11620;50.050;8.690;2022-08-07T14:38:50;33.70;74.90
22908;DHT22;11620;50.050;8.690;2022-08-07T14:41:37;33.80;77.00
22908;DHT22;11620;50.050;8.690;2022-08-07T14:44:25;33.80;75.60
22908;DHT22;11620;50.050;8.690;2022-08-07T14:47:15;33.60;76.00
22908;DHT22;11620;50.050;8.690;2022-08-07T14:50:07;33.50;76.30
22908;DHT22;11620;50.050;8.690;2022-08-07T14:52:56;33.50;76.00
22908;DHT22;11620;50.050;8.690;2022-08-07T14:55:44;33.40;75.20
22908;DHT22;11620;50.050;8.690;2022-08-07T14:58:35;33.50;75.30
22908;DHT22;11620;50.050;8.690;2022-08-07T15:01:26;33.40;75.50
22908;DHT22;11620;50.050;8.690;2022-08-07T15:04:13;33.20;75.30
22908;DHT22;11620;50.050;8.690;2022-08-07T15:07:00;33.10;76.20
22908;DHT22;11620;50.050;8.690;2022-08-07T15:09:47;33.00;75.40
22908;DHT22;11620;50.050;8.690;2022-08-07T15:12:36;33.00;76.40
22908;DHT22;11620;50.050;8.690;2022-08-07T15:15:44;33.10;75.60
22908;DHT22;11620;50.050;8.690;2022-08-07T15:18:41;33.00;75.70
22908;DHT22;11620;50.050;8.690;2022-08-07T15:21:35;33.00;77.00
22908;DHT22;11620;50.050;8.690;2022-08-07T15:24:33;33.00;77.20
22908;DHT22;11620;50.050;8.690;2022-08-07T15:27:23;33.00;76.80
22908;DHT22;11620;50.050;8.690;2022-08-07T15:30:12;32.80;76.50
22908;DHT22;11620;50.050;8.690;2022-08-07T15:33:01;32.80;75.60
22908;DHT22;11620;50.050;8.690;2022-08-07T15:35:50;32.60;77.00
22908;DHT22;11620;50.050;8.690;2022-08-07T15:38:38;32.20;75.80
22908;DHT22;11620;50.050;8.690;2022-08-07T15:41:28;32.20;75.70
22908;DHT22;11620;50.050;8.690;2022-08-07T15:44:19;32.20;76.00
22908;DHT22;11620;50.050;8.690;2022-08-07T15:47:06;32.00;75.60
22908;DHT22;11620;50.050;8.690;2022-08-07T15:49:54;32.00;75.80
22908;DHT22;11620;50.050;8.690;2022-08-07T15:52:43;31.80;76.50
22908;DHT22;11620;50.050;8.690;2022-08-07T15:55:32;31.80;76.80
22908;DHT22;11620;50.050;8.690;2022-08-07T15:58:31;31.70;76.70
22908;DHT22;11620;50.050;8.690;2022-08-07T16:01:43;31.60;76.60
22908;DHT22;11620;50.050;8.690;2022-08-07T16:04:32;31.40;77.10
22908;DHT22;11620;50.050;8.690;2022-08-07T16:07:19;31.30;77.40
22908;DHT22;11620;50.050;8.690;2022-08-07T16:10:19;31.10;77.10
22908;DHT22;11620;50.050;8.690;2022-08-07T16:13:25;30.90;77.10
22908;DHT22;11620;50.050;8.690;2022-08-07T16:19:43;30.90;77.80
22908;DHT22;11620;50.050;8.690;2022-08-07T16:23:04;30.80;77.10
22908;DHT22;11620;50.050;8.690;2022-08-07T16:32:24;30.50;77.20
22908;DHT22;11620;50.050;8.690;2022-08-07T16:35:15;30.40;77.10
22908;DHT22;11620;50.050;8.690;2022-08-07T16:38:16;30.30;77.30
22908;DHT22;11620;50.050;8.690;2022-08-07T17:02:27;29.60;77.90
22908;DHT22;11620;50.050;8.690;2022-08-07T17:08:31;29.60;78.60
22908;DHT22;11620;50.050;8.690;2022-08-07T17:11:33;29.50;79.20
22908;DHT22;11620;50.050;8.690;2022-08-07T17:17:34;29.50;79.00
22908;DHT22;11620;50.050;8.690;2022-08-07T17:20:29;29.40;78.50
22908;DHT22;11620;50.050;8.690;2022-08-07T17:39:43;29.10;79.50
22908;DHT22;11620;50.050;8.690;2022-08-07T17:42:04;29.00;79.30
22908;DHT22;11620;50.050;8.690;2022-08-07T17:44:57;28.90;79.50
22908;DHT22;11620;50.050;8.690;2022-08-07T17:51:14;28.90;79.90
22908;DHT22;11620;50.050;8.690;2022-08-07T17:54:21;28.80;79.60
22908;DHT22;11620;50.050;8.690;2022-08-07T17:57:18;28.70;79.60
22908;DHT22;11620;50.050;8.690;2022-08-07T18:00:06;28.50;79.20
22908;DHT22;11620;50.050;8.690;2022-08-07T18:05:53;28.40;79.40
22908;DHT22;11620;50.050;8.690;2022-08-07T18:08:42;28.30;80.10
22908;DHT22;11620;50.050;8.690;2022-08-07T18:11:50;28.30;79.70
22908;DHT22;11620;50.050;8.690;2022-08-07T18:14:53;28.30;80.60
22908;DHT22;11620;50.050;8.690;2022-08-07T18:18:00;28.30;80.30
22908;DHT22;11620;50.050;8.690;2022-08-07T18:20:56;28.30;80.60
22908;DHT22;11620;50.050;8.690;2022-08-07T18:24:02;28.30;80.30
22908;DHT22;11620;50.050;8.690;2022-08-07T18:30:06;28.10;80.50
22908;DHT22;11620;50.050;8.690;2022-08-07T18:39:25;27.90;80.10
22908;DHT22;11620;50.050;8.690;2022-08-07T18:42:26;27.80;80.30
22908;DHT22;11620;50.050;8.690;2022-08-07T18:45:22;27.80;80.80
22908;DHT22;11620;50.050;8.690;2022-08-07T18:48:22;27.70;80.80
22908;DHT22;11620;50.050;8.690;2022-08-07T18:51:28;27.60;80.60
22908;DHT22;11620;50.050;8.690;2022-08-07T19:06:08;27.30;80.80
22908;DHT22;11620;50.050;8.690;2022-08-07T19:09:00;27.30;81.40
22908;DHT22;11620;50.050;8.690;2022-08-07T19:12:02;27.30;81.80
22908;DHT22;11620;50.050;8.690;2022-08-07T19:21:47;27.10;81.80
22908;DHT22;11620;50.050;8.690;2022-08-07T19:24:40;27.00;81.80
22908;DHT22;11620;50.050;8.690;2022-08-07T19:27:32;26.90;81.90
22908;DHT22;11620;50.050;8.690;2022-08-07T19:30:20;26.90;82.10
22908;DHT22;11620;50.050;8.690;2022-08-07T19:33:08;26.80;82.00
22908;DHT22;11620;50.050;8.690;2022-08-07T19:35:55;26.70;82.20
22908;DHT22;11620;50.050;8.690;2022-08-07T19:38:46;26.70;82.40
22908;DHT22;11620;50.050;8.690;2022-08-07T19:41:41;26.60;82.70
22908;DHT22;11620;50.050;8.690;2022-08-07T19:44:35;26.60;83.30
22908;DHT22;11620;50.050;8.690;2022-08-07T19:47:28;26.50;82.70
22908;DHT22;11620;50.050;8.690;2022-08-07T19:50:17;26.50;82.60
22908;DHT22;11620;50.050;8.690;2022-08-07T19:53:12;26.40;82.80
22908;DHT22;11620;50.050;8.690;2022-08-07T19:55:59;26.30;83.00
22908;DHT22;11620;50.050;8.690;2022-08-07T19:58:48;26.30;83.40
22908;DHT22;11620;50.050;8.690;2022-08-07T20:01:34;26.30;83.50
22908;DHT22;11620;50.050;8.690;2022-08-07T20:04:26;26.20;83.00
22908;DHT22;11620;50.050;8.690;2022-08-07T20:07:14;26.10;83.20
22908;DHT22;11620;50.050;8.690;2022-08-07T20:10:02;26.00;83.30
22908;DHT22;11620;50.050;8.690;2022-08-07T20:12:52;25.90;82.80
22908;DHT22;11620;50.050;8.690;2022-08-07T20:15:39;25.90;83.50
22908;DHT22;11620;50.050;8.690;2022-08-07T20:18:28;25.80;83.40
22908;DHT22;11620;50.050;8.690;2022-08-07T20:21:16;25.80;83.30
22908;DHT22;11620;50.050;8.690;2022-08-07T20:24:12;25.70;83.40
22908;DHT22;11620;50.050;8.690;2022-08-07T20:27:02;25.70;83.50
22908;DHT22;11620;50.050;8.690;2022-08-07T20:29:55;25.70;83.60
22908;DHT22;11620;50.050;8.690;2022-08-07T20:32:44;25.60;83.70
22908;DHT22;11620;50.050;8.690;2022-08-07T20:35:37;25.50;84.10
22908;DHT22;11620;50.050;8.690;2022-08-07T20:38:26;25.50;84.90
22908;DHT22;11620;50.050;8.690;2022-08-07T20:41:13;25.40;85.10
22908;DHT22;11620;50.050;8.690;2022-08-07T20:44:03;25.40;84.50
22908;DHT22;11620;50.050;8.690;2022-08-07T20:46:53;25.40;84.80
22908;DHT22;11620;50.050;8.690;2022-08-07T20:49:41;25.40;85.10
22908;DHT22;11620;50.050;8.690;2022-08-07T20:52:31;25.30;85.10
22908;DHT22;11620;50.050;8.690;2022-08-07T20:55:22;25.30;85.70
22908;DHT22;11620;50.050;8.690;2022-08-07T20:58:09;25.30;85.50
22908;DHT22;11620;50.050;8.690;2022-08-07T21:01:05;25.20;85.50
22908;DHT22;11620;50.050;8.690;2022-08-07T21:03:56;25.20;85.70
22908;DHT22;11620;50.050;8.690;2022-08-07T21:06:44;25.20;85.50
22908;DHT22;11620;50.050;8.690;2022-08-07T21:09:34;25.10;85.90
22908;DHT22;11620;50.050;8.690;2022-08-07T21:12:23;25.10;86.10
22908;DHT22;11620;50.050;8.690;2022-08-07T21:15:11;25.10;85.60
22908;DHT22;11620;50.050;8.690;2022-08-07T21:18:02;25.10;86.40
22908;DHT22;11620;50.050;8.690;2022-08-07T21:20:55;25.00;86.40
22908;DHT22;11620;50.050;8.690;2022-08-07T21:36:37;24.80;86.80
22908;DHT22;11620;50.050;8.690;2022-08-07T21:42:22;24.60;86.50
22908;DHT22;11620;50.050;8.690;2022-08-07T21:45:34;24.60;87.20
22908;DHT22;11620;50.050;8.690;2022-08-07T21:52:12;24.50;86.60
22908;DHT22;11620;50.050;8.690;2022-08-07T21:55:07;24.40;87.10
22908;DHT22;11620;50.050;8.690;2022-08-07T21:58:08;24.40;88.20
22908;DHT22;11620;50.050;8.690;2022-08-07T22:01:21;24.40;87.10
22908;DHT22;11620;50.050;8.690;2022-08-07T22:04:14;24.40;87.90
22908;DHT22;11620;50.050;8.690;2022-08-07T22:07:11;24.30;89.30